Aurora, New Mexico
Current Conditions -  °F | °C
As of 8:53 AM on Tuesday 21 Oct 2014 (Local Time) from KLVS Reporting Station
Overcast Overcast  
Wind Chill: 50°   Ceiling: 3400
Heat Index: 50°   Visibility: 10mi
Dew Point: 45°   Wind: 6mph
Humidity: 83%   Direction: 210°SSW
Pressure: 30.24"   Gusts: NA
Location:  36.0243°N, 105.005°W
Report Text: KLVS 211453Z AUTO 21005KT 10SM FEW017 BKN034 OVC042 10/07 A3024 RMK AO2 SLP177 T01000072 53007
Loading
Personal Weather Stations






























Interactive Weather Map New forecast layout! Learn more

10-Day Weather Forecast

Advertisements
Track Severe Weather on mobile